Adamstown, PA (19501)

10:31 AM EDT on August 28, 2015 (GMT -0400)
Quail Hollow | | Change Station
CLOSE
Current Station
Personal Weather Station
Location: Denver, PA
Elevation: 459 ft
Nearby Weather Stations

Elev 459 ft 40.22 °N, 76.08 °W | Updated 2 minutes ago

Clear
Clear
75.4 °F
Feels Like 78 °F
N
6.3
Wind Variable Wind from NW

Today
High -- | Low -- °F
--% Chance of Precip.
Yesterday
High -- | Low -- °F
Precip. -- in
6:27 AM 7:42 PM
Waxing Gibbous, 98% visible
Pressure 30.22 in
Visibility 10.0 miles
Clouds Few 3200 ft
Heat Index 78 °F
Dew Point 59 °F
Humidity 57%
Rainfall 0.00 in
Snow Depth Not available.
UV 4 out of 12
Pollen 9.80 out of 12
Air Quality Not available.
Flu Activity Not available.
METAR KRDG 281354Z VRB04KT 10SM FEW032 21/13 A3021 RMK AO2 SLP234 T02060133
Pressure 30.22 in
Visibility 10.0 miles
Clouds Few 3200 ft
Heat Index 78 °F
Dew Point 59 °F
Humidity 57%
Rainfall 0.00 in
Snow Depth Not available.
UV 4 out of 12
Pollen 9.80 out of 12
Air Quality Not available.
Flu Activity Not available.
METAR KRDG 281354Z VRB04KT 10SM FEW032 21/13 A3021 RMK AO2 SLP234 T02060133

10-Day Weather Forecast

×

Almanac

Astronomy

Aug. 28, 2015 Rise Set
Actual Time
Civil Twilight
Nautical Twilight
Astronomical Twilight
Moon
Length of Visible Light
Length of Day
Tomorrow will be .
, % of the Moon is Illuminated

Today's Extremes

State Highs State Lows

Community

WunderPhotos

Upload Photos

1,850,386 photos uploaded!

WunderBlogs® & News

Nearby

Air Quality

  Air Quality AQ Index Pollutant
Not available.

Snow Depth

Station Depth Elevation

Earthquake Activity

City Distance Mag. Time & Date
Minimum magnitude displayed is 2.5.

Coastal Water Temperatures

Place Temperature

Stations

Nearby Weather Stations

Station Location Temp. Windchill Dew Point Humidity Wind Precip. Elev Updated Type